Time;durP1;ratioP1;P1;durP2;ratioP2;P2;SDS_P1;SDS_P2;PMS_P1;PMS_P2;Temp;Humidity;BMP_temperature;BMP_pressure;BME280_temperature;BME280_humidity;BME280_pressure;Samples;Min_cycle;Max_cycle;Signal;HPM_P1;HPM_P2
2023/07/19 00:00:37;;;;;;;;;;;;;;;14.68;39.70;95382.06;5003144;28;20539;-79
2023/07/19 00:03:02;;;;;;;;;;;;;;;14.67;39.05;95375.06;4998462;28;19952;-78
2023/07/19 00:05:28;;;;;;;;;;;;;;;14.72;39.50;95385.13;5006537;28;19961;-79
2023/07/19 00:07:53;;;;;;;;;;;;;;;14.78;39.15;95383.50;5004111;28;20012;-78
2023/07/19 00:10:18;;;;;;;;;;;;;;;14.79;38.88;95377.13;5002576;28;19918;-79
2023/07/19 00:12:43;;;;;;;;;;;;;;;14.84;39.06;95379.97;5008609;28;19917;-79
2023/07/19 00:15:09;;;;;;;;;;;;;;;14.83;38.32;95378.34;5005288;28;20029;-79
2023/07/19 00:17:34;;;;;;;;;;;;;;;14.83;38.93;95379.13;5003959;28;20452;-78
2023/07/19 00:19:59;;;;;;;;;;;;;;;14.74;38.31;95383.09;5004677;28;19960;-78
2023/07/19 00:22:24;;;;;;;;;;;;;;;14.66;38.52;95373.41;5007668;28;20594;-78
2023/07/19 00:24:50;;;;;;;;;;;;;;;14.70;39.38;95385.34;5002985;28;19913;-78
2023/07/19 00:27:15;;;;;;;;;;;;;;;14.70;39.28;95377.31;5002063;28;20021;-78
2023/07/19 00:29:40;;;;;;;;;;;;;;;14.74;38.75;95374.22;5003178;28;19924;-78
2023/07/19 00:32:05;;;;;;;;;;;;;;;14.78;39.25;95375.44;5007057;28;19928;-79
2023/07/19 00:34:31;;;;;;;;;;;;;;;;;;5021017;28;20333;-79
2023/07/19 00:36:56;;;;;;;;;;;;;;;14.75;38.08;95378.56;5002810;28;19918;-78
2023/07/19 00:39:21;;;;;;;;;;;;;;;14.67;39.36;95371.53;5004339;28;19917;-78
2023/07/19 00:41:47;;;;;;;;;;;;;;;14.66;39.30;95372.59;5003184;28;19925;-78
2023/07/19 00:44:12;;;;;;;;;;;;;;;14.62;39.24;95374.03;5007286;28;20498;-78
2023/07/19 00:46:37;;;;;;;;;;;;;;;14.68;38.82;95373.19;5002118;28;20210;-78
2023/07/19 00:49:02;;;;;;;;;;;;;;;14.71;38.76;95372.75;5004931;28;19921;-79
2023/07/19 00:51:28;;;;;;;;;;;;;;;14.77;38.97;95371.13;5008361;28;19964;-78
2023/07/19 00:53:53;;;;;;;;;;;;;;;14.80;38.67;95368.03;5001764;28;20347;-78
2023/07/19 00:56:18;;;;;;;;;;;;;;;14.82;38.34;95369.47;5007095;28;19917;-78
2023/07/19 00:58:43;;;;;;;;;;;;;;;14.85;38.56;95373.56;5006601;28;20292;-78
2023/07/19 01:01:09;;;;;;;;;;;;;;;14.83;38.50;95368.44;5008415;28;19921;-81
2023/07/19 01:03:34;;;;;;;;;;;;;;;14.82;38.62;95377.50;5002407;28;19929;-81
2023/07/19 01:06:00;;;;;;;;;;;;;;;14.84;38.16;95370.09;4997393;28;20116;-81
2023/07/19 01:08:25;;;;;;;;;;;;;;;14.76;38.09;95378.38;5012004;28;19922;-81
2023/07/19 01:10:51;;;;;;;;;;;;;;;14.71;38.65;95376.28;5008407;28;20563;-80
2023/07/19 01:13:16;;;;;;;;;;;;;;;14.72;38.84;95377.91;5009764;28;19917;-82
2023/07/19 01:15:41;;;;;;;;;;;;;;;14.69;38.56;95377.53;5004284;28;19928;-82
2023/07/19 01:18:07;;;;;;;;;;;;;;;14.64;38.76;95370.09;5004062;28;19936;-81
2023/07/19 01:20:32;;;;;;;;;;;;;;;14.65;38.76;95376.31;5019899;28;19971;-81
2023/07/19 01:22:57;;;;;;;;;;;;;;;14.56;38.77;95373.84;5013815;28;20339;-81
2023/07/19 01:25:23;;;;;;;;;;;;;;;14.55;38.81;95372.19;5011347;28;19921;-81
2023/07/19 01:27:49;;;;;;;;;;;;;;;14.55;38.74;95369.50;5017579;28;19917;-82
2023/07/19 01:30:14;;;;;;;;;;;;;;;14.56;38.99;95370.34;5017779;28;19925;-82
2023/07/19 01:32:39;;;;;;;;;;;;;;;14.61;38.96;95373.19;5017771;28;19917;-82
2023/07/19 01:35:05;;;;;;;;;;;;;;;14.63;38.79;95373.84;5003074;28;19991;-80
2023/07/19 01:37:30;;;;;;;;;;;;;;;14.65;38.58;95373.63;5006253;28;19933;-80
2023/07/19 01:39:55;;;;;;;;;;;;;;;14.70;38.46;95368.44;5014494;28;19917;-82
2023/07/19 01:42:20;;;;;;;;;;;;;;;14.73;38.39;95368.03;5013655;28;19917;-81
2023/07/19 01:44:46;;;;;;;;;;;;;;;14.74;38.26;95367.03;5014663;28;19929;-81
2023/07/19 01:47:11;;;;;;;;;;;;;;;;;;5013230;28;19971;-82
2023/07/19 01:49:36;;;;;;;;;;;;;;;;;;5008556;28;19955;-80
2023/07/19 01:52:01;;;;;;;;;;;;;;;14.78;38.26;95368.25;5013460;28;19913;-83
2023/07/19 01:54:26;;;;;;;;;;;;;;;14.68;38.41;95368.66;5003588;28;19917;-82
2023/07/19 01:56:52;;;;;;;;;;;;;;;14.54;38.64;95357.16;5009885;28;19921;-81
2023/07/19 01:59:17;;;;;;;;;;;;;;;14.30;38.97;95364.81;5004474;28;19948;-82
2023/07/19 02:01:43;;;;;;;;;;;;;;;14.11;39.36;95354.97;5007171;28;19933;-82
2023/07/19 02:04:08;;;;;;;;;;;;;;;14.02;39.94;95351.66;5012297;28;20535;-81
2023/07/19 02:06:33;;;;;;;;;;;;;;;13.98;40.30;95351.25;4996319;28;19931;-82
2023/07/19 02:08:58;;;;;;;;;;;;;;;14.04;40.54;95347.75;5011758;28;19917;-81
2023/07/19 02:11:24;;;;;;;;;;;;;;;14.06;39.36;95348.38;5012167;28;20349;-81
2023/07/19 02:13:49;;;;;;;;;;;;;;;13.98;40.27;95345.06;5000012;28;19925;-81
2023/07/19 02:16:15;;;;;;;;;;;;;;;13.94;40.19;95342.81;5002956;28;19925;-81
2023/07/19 02:18:40;;;;;;;;;;;;;;;13.92;40.26;95342.19;5005033;28;19951;-81
2023/07/19 02:21:06;;;;;;;;;;;;;;;13.89;40.64;95339.94;4999010;28;19934;-81
2023/07/19 02:23:32;;;;;;;;;;;;;;;13.90;40.12;95338.91;5009148;28;19917;-80
2023/07/19 02:25:57;;;;;;;;;;;;;;;13.90;40.66;95338.91;5002822;28;19925;-80
2023/07/19 02:28:23;;;;;;;;;;;;;;;13.91;40.90;95337.06;5011276;28;20555;-79
2023/07/19 02:30:48;;;;;;;;;;;;;;;13.87;39.66;95341.16;5016938;28;20527;-79
2023/07/19 02:33:13;;;;;;;;;;;;;;;13.90;40.24;95336.22;5010550;28;19917;-79
2023/07/19 02:35:39;;;;;;;;;;;;;;;13.86;40.31;95331.44;5001620;28;19925;-79
2023/07/19 02:38:04;;;;;;;;;;;;;;;13.80;39.61;95325.06;5011254;28;19918;-79
2023/07/19 02:40:29;;;;;;;;;;;;;;;13.78;40.52;95329.81;4997991;28;19968;-79
2023/07/19 02:42:55;;;;;;;;;;;;;;;13.81;40.49;95327.53;4999500;28;20730;-81
2023/07/19 02:45:20;;;;;;;;;;;;;;;13.85;39.82;95336.00;5000970;28;19932;-81
2023/07/19 02:47:45;;;;;;;;;;;;;;;13.79;39.80;95326.94;5001694;28;20528;-80
2023/07/19 02:50:11;;;;;;;;;;;;;;;13.73;40.42;95343.00;5001080;28;19926;-82
2023/07/19 02:52:36;;;;;;;;;;;;;;;13.73;40.37;95340.31;5001153;28;19984;-82
2023/07/19 02:55:01;;;;;;;;;;;;;;;13.69;40.27;95338.03;4999351;28;19956;-80
2023/07/19 02:57:26;;;;;;;;;;;;;;;13.68;40.31;95346.28;4999606;28;19971;-82
2023/07/19 02:59:51;;;;;;;;;;;;;;;13.67;40.19;95334.75;5002287;28;19923;-81
2023/07/19 03:02:17;;;;;;;;;;;;;;;13.55;39.68;95334.53;5006696;28;19953;-80
2023/07/19 03:04:42;;;;;;;;;;;;;;;13.51;40.60;95335.97;5000720;28;19929;-79
2023/07/19 03:07:07;;;;;;;;;;;;;;;13.54;40.81;95334.75;5007557;28;19921;-81
2023/07/19 03:09:32;;;;;;;;;;;;;;;13.47;40.04;95331.22;5013232;28;20476;-82
2023/07/19 03:11:58;;;;;;;;;;;;;;;13.27;40.16;95343.53;5006862;28;20008;-79
2023/07/19 03:14:23;;;;;;;;;;;;;;;13.18;41.21;95347.41;5017368;28;19940;-79
2023/07/19 03:16:48;;;;;;;;;;;;;;;13.18;41.06;95350.91;5017750;28;19928;-81
2023/07/19 03:19:13;;;;;;;;;;;;;;;13.18;40.51;95347.41;5019299;28;19925;-81
2023/07/19 03:21:39;;;;;;;;;;;;;;;13.11;40.63;95347.41;5018231;28;19933;-80
2023/07/19 03:24:04;;;;;;;;;;;;;;;12.97;40.91;95348.34;5012062;28;19972;-79
2023/07/19 03:26:29;;;;;;;;;;;;;;;12.68;41.25;95351.06;5009442;28;20610;-80
2023/07/19 03:28:54;;;;;;;;;;;;;;;12.53;41.84;95351.22;5008222;28;19932;-81
2023/07/19 03:31:20;;;;;;;;;;;;;;;12.59;42.28;95361.13;5020819;28;19971;-79
2023/07/19 03:33:45;;;;;;;;;;;;;;;12.69;42.07;95359.94;5011691;28;19969;-80
2023/07/19 03:36:10;;;;;;;;;;;;;;;12.67;41.32;95354.78;5008714;28;20267;-80
2023/07/19 03:38:36;;;;;;;;;;;;;;;12.62;41.65;95349.22;5020803;28;19996;-81
2023/07/19 03:41:07;;;;;;;;;;;;;;;12.59;41.98;95347.78;5011716;28;20344;-80
2023/07/19 03:43:33;;;;;;;;;;;;;;;12.64;41.96;95349.81;4992548;28;20569;-79
2023/07/19 03:45:58;;;;;;;;;;;;;;;12.69;42.45;95347.41;5015509;28;19963;-81
2023/07/19 03:48:23;;;;;;;;;;;;;;;12.73;42.00;95353.16;5018960;28;20507;-80
2023/07/19 03:51:14;;;;;;;;;;;;;;;12.75;42.12;95348.47;5012362;28;19921;-80
2023/07/19 03:53:40;;;;;;;;;;;;;;;12.79;41.69;95350.50;5002074;28;19928;-78
2023/07/19 03:56:05;;;;;;;;;;;;;;;12.73;41.26;95351.34;5007821;28;19917;-80
2023/07/19 03:58:30;;;;;;;;;;;;;;;12.57;41.50;95355.13;5008685;28;19975;-79
2023/07/19 04:00:59;;;;;;;;;;;;;;;12.51;42.31;95358.63;5004276;28;20418;-81
2023/07/19 04:03:25;;;;;;;;;;;;;;;12.52;42.24;95347.72;5004439;28;20016;-80
2023/07/19 04:05:50;;;;;;;;;;;;;;;12.50;42.07;95349.78;4997443;28;20047;-78
2023/07/19 04:08:16;;;;;;;;;;;;;;;12.60;41.83;95352.09;5009653;28;19918;-80
2023/07/19 04:10:41;;;;;;;;;;;;;;;12.67;41.79;95344.94;5025235;28;20711;-80
2023/07/19 04:13:07;;;;;;;;;;;;;;;12.65;41.78;95346.97;5014004;28;19921;-80
2023/07/19 04:15:33;;;;;;;;;;;;;;;12.68;42.00;95348.41;5016896;28;20289;-81
2023/07/19 04:17:58;;;;;;;;;;;;;;;12.71;41.57;95348.03;5017468;28;20048;-81
2023/07/19 04:20:25;;;;;;;;;;;;;;;12.71;41.64;95348.03;5013254;28;19932;-82
2023/07/19 04:22:50;;;;;;;;;;;;;;;12.79;42.06;95342.50;5015188;28;20164;-80
2023/07/19 04:25:15;;;;;;;;;;;;;;;12.88;41.46;95348.50;5016262;28;20043;-80
2023/07/19 04:27:41;;;;;;;;;;;;;;;12.96;42.09;95347.53;5016661;28;19972;-80
2023/07/19 04:30:06;;;;;;;;;;;;;;;13.08;41.68;95345.13;5018981;28;19927;-82
2023/07/19 04:32:31;;;;;;;;;;;;;;;13.04;41.44;95342.03;5011266;28;19921;-82
2023/07/19 04:34:58;;;;;;;;;;;;;;;13.07;41.40;95340.81;5011241;28;19913;-81
2023/07/19 04:37:23;;;;;;;;;;;;;;;13.05;41.52;95342.84;5014438;28;20372;-81
2023/07/19 04:39:49;;;;;;;;;;;;;;;13.02;41.79;95345.94;5004981;28;19930;-79
2023/07/19 04:42:15;;;;;;;;;;;;;;;13.10;42.33;95340.41;5009664;28;19929;-81
2023/07/19 04:44:40;;;;;;;;;;;;;;;13.22;41.73;95337.16;5016516;28;19925;-81
2023/07/19 04:47:06;;;;;;;;;;;;;;;13.37;41.41;95334.28;5014037;28;20428;-83
2023/07/19 04:49:31;;;;;;;;;;;;;;;13.34;41.28;95334.69;5013992;28;19928;-81
2023/07/19 04:51:56;;;;;;;;;;;;;;;13.39;41.53;95334.91;5012958;28;20003;-82
2023/07/19 04:54:22;;;;;;;;;;;;;;;13.57;41.33;95329.00;5007959;28;19922;-81
2023/07/19 04:56:47;;;;;;;;;;;;;;;13.77;40.81;95339.69;5008555;28;19954;-82
2023/07/19 04:59:12;;;;;;;;;;;;;;;13.85;40.68;95337.84;5004368;28;19918;-83
2023/07/19 05:01:38;;;;;;;;;;;;;;;13.86;41.03;95336.78;5011271;28;19987;-83
2023/07/19 05:04:03;;;;;;;;;;;;;;;13.92;40.87;95336.03;5012081;28;19933;-84
2023/07/19 05:06:29;;;;;;;;;;;;;;;13.88;41.47;95330.28;5003198;28;19918;-82
2023/07/19 05:08:54;;;;;;;;;;;;;;;13.75;41.93;95335.56;5004655;28;19932;-83
2023/07/19 05:11:20;;;;;;;;;;;;;;;13.66;42.03;95337.63;5006354;28;20109;-81
2023/07/19 05:13:45;;;;;;;;;;;;;;;13.89;41.11;95339.09;5021761;28;19917;-82
2023/07/19 05:16:10;;;;;;;;;;;;;;;14.16;41.36;95333.72;5020947;28;19926;-81
2023/07/19 05:18:36;;;;;;;;;;;;;;;14.13;41.48;95332.31;5019293;28;19926;-81
2023/07/19 05:21:01;;;;;;;;;;;;;;;14.08;42.08;95334.78;5015528;28;19929;-82
2023/07/19 05:23:26;;;;;;;;;;;;;;;14.16;41.74;95334.56;4999660;28;19961;-84
2023/07/19 05:25:52;;;;;;;;;;;;;;;14.27;41.24;95326.91;5011869;28;19921;-82
2023/07/19 05:28:20;;;;;;;;;;;;;;;14.50;41.04;95331.81;5012688;28;19918;-82
2023/07/19 05:30:45;;;;;;;;;;;;;;;14.80;40.65;95330.53;5014987;28;19918;-82
2023/07/19 05:33:10;;;;;;;;;;;;;;;15.02;39.54;95341.75;5013535;28;19925;-81
2023/07/19 05:35:36;;;;;;;;;;;;;;;15.32;39.95;95338.53;5026648;28;19988;-81
2023/07/19 05:38:01;;;;;;;;;;;;;;;15.59;39.25;95343.75;5010041;28;19999;-81
2023/07/19 05:40:26;;;;;;;;;;;;;;;15.86;39.72;95338.19;5011055;28;19918;-83
2023/07/19 05:42:51;;;;;;;;;;;;;;;16.03;40.30;95340.31;5014623;28;20108;-80
2023/07/19 05:45:17;;;;;;;;;;;;;;;16.26;38.49;95339.69;5011958;28;20520;-81
2023/07/19 05:47:42;;;;;;;;;;;;;;;16.42;39.44;95342.88;5009151;28;19917;-81
2023/07/19 05:50:07;;;;;;;;;;;;;;;16.62;38.69;95340.00;5002119;28;19926;-82
2023/07/19 05:52:33;;;;;;;;;;;;;;;16.84;39.37;95346.78;5002413;28;20154;-82
2023/07/19 05:54:58;;;;;;;;;;;;;;;16.98;39.42;95342.06;5013828;28;20649;-82
2023/07/19 05:57:23;;;;;;;;;;;;;;;17.26;39.59;95344.22;5018034;28;20332;-82
2023/07/19 05:59:48;;;;;;;;;;;;;;;17.65;35.87;95348.44;5006736;28;19921;-81
2023/07/19 06:02:14;;;;;;;;;;;;;;;18.04;35.29;95345.38;5009078;28;19925;-82
2023/07/19 06:04:39;;;;;;;;;;;;;;;18.32;35.57;95343.88;5000702;28;19926;-82
2023/07/19 06:07:05;;;;;;;;;;;;;;;18.54;35.21;95340.59;5001442;28;19922;-82
2023/07/19 06:09:30;;;;;;;;;;;;;;;18.78;33.79;95341.41;5003556;28;19918;-80
2023/07/19 06:11:56;;;;;;;;;;;;;;;19.03;32.97;95348.38;5003762;28;20567;-81
2023/07/19 06:14:22;;;;;;;;;;;;;;;19.27;32.84;95340.22;5016822;28;20302;-81
2023/07/19 06:16:48;;;;;;;;;;;;;;;19.59;32.53;95345.13;5006048;28;19944;-82
2023/07/19 06:19:16;;;;;;;;;;;;;;;19.82;31.85;95343.34;5000980;28;19925;-82
2023/07/19 06:21:41;;;;;;;;;;;;;;;20.08;30.68;95343.81;5007350;28;19925;-82
2023/07/19 06:24:06;;;;;;;;;;;;;;;20.31;29.33;95349.28;5008770;28;19929;-82
2023/07/19 06:26:31;;;;;;;;;;;;;;;19.82;29.21;95350.66;5001252;28;19925;-82
2023/07/19 06:28:57;;;;;;;;;;;;;;;19.78;29.70;95352.22;5004767;28;19921;-82
2023/07/19 06:31:22;;;;;;;;;;;;;;;19.72;30.03;95346.72;5000082;28;20436;-82
2023/07/19 06:33:47;;;;;;;;;;;;;;;19.97;29.80;95350.13;5011887;28;20008;-83
2023/07/19 06:36:12;;;;;;;;;;;;;;;20.28;29.98;95350.59;5004351;28;20002;-83
2023/07/19 06:38:38;;;;;;;;;;;;;;;20.75;29.25;95354.00;5005424;28;19979;-66
2023/07/19 06:41:03;;;;;;;;;;;;;;;20.74;28.67;95349.66;4995834;28;20386;-67
2023/07/19 06:43:29;;;;;;;;;;;;;;;20.82;29.09;95351.09;4999918;28;20341;-66
2023/07/19 06:45:54;;;;;;;;;;;;;;;21.18;28.21;95356.16;5012907;28;20532;-67
2023/07/19 06:48:19;;;;;;;;;;;;;;;21.17;28.58;95355.31;5005470;28;19926;-68
2023/07/19 06:50:44;;;;;;;;;;;;;;;21.29;28.99;95357.94;5003731;28;20450;-66
2023/07/19 06:53:10;;;;;;;;;;;;;;;21.05;27.92;95352.75;5002250;28;20564;-67
2023/07/19 06:55:35;;;;;;;;;;;;;;;20.62;28.03;95352.44;5002461;28;19929;-66
2023/07/19 06:58:00;;;;;;;;;;;;;;;20.61;27.75;95350.81;4999808;28;19967;-66
2023/07/19 07:00:25;;;;;;;;;;;;;;;19.95;28.42;95350.34;5001087;28;20260;-66
2023/07/19 07:02:51;;;;;;;;;;;;;;;20.17;29.77;95343.41;5007656;28;20338;-66
2023/07/19 07:05:16;;;;;;;;;;;;;;;20.21;28.63;95356.19;4998022;28;20016;-67
2023/07/19 07:07:41;;;;;;;;;;;;;;;20.21;28.85;95358.88;5000474;28;20024;-67
2023/07/19 07:10:08;;;;;;;;;;;;;;;20.52;29.42;95361.22;4997379;28;19959;-67
2023/07/19 07:12:34;;;;;;;;;;;;;;;19.61;30.24;95366.47;5004231;28;19921;-67
2023/07/19 07:14:59;;;;;;;;;;;;;;;20.34;29.01;95360.44;4999384;28;19991;-65
2023/07/19 07:17:24;;;;;;;;;;;;;;;20.32;29.03;95359.84;5008320;28;19917;-67
2023/07/19 07:19:50;;;;;;;;;;;;;;;19.68;29.39;95350.16;4997673;28;19926;-67
2023/07/19 07:22:16;;;;;;;;;;;;;;;20.86;28.17;95344.94;5001059;28;20536;-66
2023/07/19 07:24:41;;;;;;;;;;;;;;;21.21;27.87;95345.63;5000999;28;19924;-66
2023/07/19 07:27:06;;;;;;;;;;;;;;;21.68;26.82;95348.03;5012720;28;20320;-67
2023/07/19 07:29:31;;;;;;;;;;;;;;;21.70;27.14;95346.72;4994980;28;19925;-67
2023/07/19 07:31:57;;;;;;;;;;;;;;;20.83;27.80;95355.44;5002489;28;19930;-66
2023/07/19 07:34:22;;;;;;;;;;;;;;;20.96;28.23;95359.66;5003090;28;19922;-67
2023/07/19 07:36:47;;;;;;;;;;;;;;;20.86;28.73;95361.19;5002139;28;19929;-66
2023/07/19 07:39:13;;;;;;;;;;;;;;;21.06;28.53;95351.69;4998939;28;19925;-66
2023/07/19 07:41:38;;;;;;;;;;;;;;;21.50;28.32;95350.84;4998459;28;19929;-68
2023/07/19 07:44:03;;;;;;;;;;;;;;;21.32;28.58;95356.59;5005790;28;19968;-66
2023/07/19 07:46:29;;;;;;;;;;;;;;;21.37;28.07;95348.53;5004633;28;20009;-67
2023/07/19 07:48:59;;;;;;;;;;;;;;;21.17;28.97;95349.91;4994542;28;19960;-66
2023/07/19 07:51:24;;;;;;;;;;;;;;;21.99;27.25;95342.94;5003561;28;19924;-66
2023/07/19 07:53:49;;;;;;;;;;;;;;;21.86;27.56;95342.22;5007946;28;20477;-68
2023/07/19 07:56:14;;;;;;;;;;;;;;;22.03;28.05;95335.91;5002102;28;20016;-66
2023/07/19 07:58:40;;;;;;;;;;;;;;;22.98;26.44;95330.78;5003791;28;19918;-68
2023/07/19 08:01:05;;;;;;;;;;;;;;;22.65;26.40;95339.06;5005005;28;19995;-69
2023/07/19 08:03:31;;;;;;;;;;;;;;;22.50;27.09;95333.53;5001760;28;20063;-68
2023/07/19 08:05:56;;;;;;;;;;;;;;;21.84;28.15;95335.44;5004897;28;19929;-68
2023/07/19 08:08:21;;;;;;;;;;;;;;;22.57;27.27;95338.75;5013481;28;19921;-68
2023/07/19 08:10:46;;;;;;;;;;;;;;;21.98;27.15;95336.69;5020754;28;19929;-66
2023/07/19 08:13:12;;;;;;;;;;;;;;;21.97;27.01;95342.34;5011044;28;19932;-68
2023/07/19 08:15:37;;;;;;;;;;;;;;;21.46;27.66;95327.22;5014561;28;19921;-68
2023/07/19 08:18:02;;;;;;;;;;;;;;;21.43;28.97;95327.75;5001532;28;19971;-66
2023/07/19 08:20:28;;;;;;;;;;;;;;;21.20;28.41;95332.34;5001272;28;20333;-67
2023/07/19 08:22:53;;;;;;;;;;;;;;;21.53;28.87;95325.16;5007398;28;19961;-66
2023/07/19 08:25:19;;;;;;;;;;;;;;;21.75;27.58;95316.13;5007758;28;19925;-66
2023/07/19 08:27:44;;;;;;;;;;;;;;;22.24;27.13;95317.91;5011831;28;19928;-68
2023/07/19 08:30:15;;;;;;;;;;;;;;;22.26;28.43;95312.19;5014019;28;20121;-67
2023/07/19 08:32:40;;;;;;;;;;;;;;;22.09;27.63;95307.75;5004524;28;19933;-66
2023/07/19 08:35:06;;;;;;;;;;;;;;;22.39;27.82;95309.03;5001914;28;19921;-66
2023/07/19 08:37:31;;;;;;;;;;;;;;;21.63;29.24;95322.53;5000342;28;19928;-67
2023/07/19 08:39:56;;;;;;;;;;;;;;;20.84;29.92;95328.13;5001911;28;19932;-68
2023/07/19 08:42:21;;;;;;;;;;;;;;;20.13;30.62;95316.06;5000214;28;20016;-67
2023/07/19 08:44:48;;;;;;;;;;;;;;;20.29;31.31;95313.59;4999766;28;19921;-69
2023/07/19 08:47:13;;;;;;;;;;;;;;;20.46;30.13;95310.84;5000376;28;19917;-66
2023/07/19 08:49:39;;;;;;;;;;;;;;;19.43;32.00;95314.34;5003516;28;19937;-67
2023/07/19 08:52:06;;;;;;;;;;;;;;;20.00;31.82;95305.59;5011915;28;19984;-67
2023/07/19 08:54:31;;;;;;;;;;;;;;;20.41;31.88;95308.06;5000200;28;19925;-70
2023/07/19 08:56:56;;;;;;;;;;;;;;;20.19;31.40;95312.34;5005834;28;20318;-71
2023/07/19 08:59:22;;;;;;;;;;;;;;;20.53;30.32;95316.88;5001765;28;19925;-70
2023/07/19 09:01:47;;;;;;;;;;;;;;;20.43;29.91;95314.06;4997344;28;20018;-71
2023/07/19 09:04:12;;;;;;;;;;;;;;;20.64;29.41;95312.47;5006275;28;20565;-71
2023/07/19 09:06:38;;;;;;;;;;;;;;;21.00;30.97;95306.69;5008120;28;20483;-71
2023/07/19 09:09:04;;;;;;;;;;;;;;;20.34;30.03;95319.06;5016590;28;20051;-71
2023/07/19 09:11:29;;;;;;;;;;;;;;;20.99;29.37;95313.16;5001533;28;20019;-71
2023/07/19 09:13:55;;;;;;;;;;;;;;;20.51;30.28;95319.03;5004361;28;19922;-70
2023/07/19 09:16:26;;;;;;;;;;;;;;;20.31;30.54;95314.97;5002994;28;19918;-70
2023/07/19 09:18:51;;;;;;;;;;;;;;;20.37;30.79;95307.75;5002226;28;19925;-71
2023/07/19 09:21:17;;;;;;;;;;;;;;;20.58;29.83;95311.56;5001375;28;19935;-71
2023/07/19 09:23:42;;;;;;;;;;;;;;;20.57;31.00;95314.53;4999962;28;20072;-70
2023/07/19 09:26:07;;;;;;;;;;;;;;;20.44;31.28;95307.56;5008090;28;19930;-70
2023/07/19 09:28:33;;;;;;;;;;;;;;;20.93;31.38;95311.47;5003684;28;20008;-71
2023/07/19 09:30:59;;;;;;;;;;;;;;;20.64;31.61;95309.78;5005207;28;20341;-70
2023/07/19 09:33:24;;;;;;;;;;;;;;;20.62;31.87;95322.69;4999597;28;20618;-71
2023/07/19 09:35:52;;;;;;;;;;;;;;;19.34;33.39;95321.19;4997586;28;19925;-71
2023/07/19 09:38:18;;;;;;;;;;;;;;;19.73;32.53;95317.84;5004427;28;19996;-71
2023/07/19 09:40:43;;;;;;;;;;;;;;;19.97;33.65;95331.22;5009280;28;19929;-71
2023/07/19 09:43:08;;;;;;;;;;;;;;;19.85;32.89;95323.97;5008215;28;19937;-71
2023/07/19 09:45:33;;;;;;;;;;;;;;;20.29;33.67;95321.72;5009490;28;19970;-72
2023/07/19 09:47:59;;;;;;;;;;;;;;;21.34;30.86;95311.97;5012267;28;19913;-71
2023/07/19 09:50:25;;;;;;;;;;;;;;;19.72;34.58;95310.81;5009128;28;20064;-71
2023/07/19 09:52:51;;;;;;;;;;;;;;;19.40;34.91;95319.41;5013087;28;19960;-71
2023/07/19 09:55:16;;;;;;;;;;;;;;;19.67;34.64;95310.69;5005388;28;19913;-71
2023/07/19 09:57:41;;;;;;;;;;;;;;;19.90;34.65;95317.00;5003559;28;19936;-72
2023/07/19 10:00:07;;;;;;;;;;;;;;;20.65;33.54;95316.00;5013912;28;20439;-71
2023/07/19 10:02:32;;;;;;;;;;;;;;;21.07;32.35;95312.72;5001483;28;20094;-71
2023/07/19 10:04:57;;;;;;;;;;;;;;;20.55;33.19;95314.75;4997891;28;20492;-71
2023/07/19 10:07:25;;;;;;;;;;;;;;;20.63;32.85;95316.22;5016089;28;19921;-72
2023/07/19 10:10:01;;;;;;;;;;;;;;;20.05;32.95;95314.59;5005932;28;19976;-71
2023/07/19 10:12:26;;;;;;;;;;;;;;;19.97;33.44;95320.41;5019342;28;19920;-71
2023/07/19 10:14:52;;;;;;;;;;;;;;;19.62;35.11;95316.03;5019424;28;19909;-71
2023/07/19 10:17:18;;;;;;;;;;;;;;;19.77;34.45;95318.16;5004322;28;19925;-72
2023/07/19 10:20:02;;;;;;;;;;;;;;;19.71;34.87;95309.16;4998891;28;20548;-83
2023/07/19 10:22:46;;;;;;;;;;;;;;;20.15;33.71;95308.53;5018330;28;19936;-83
2023/07/19 10:25:13;;;;;;;;;;;;;;;20.55;33.43;95301.25;5006988;28;19957;-84
2023/07/19 10:27:39;;;;;;;;;;;;;;;20.84;31.06;95300.28;5015772;28;20025;-83
2023/07/19 10:30:04;;;;;;;;;;;;;;;21.25;30.85;95302.63;5010157;28;19967;-84
2023/07/19 10:32:29;;;;;;;;;;;;;;;20.92;32.51;95301.72;5007516;28;19961;-83
2023/07/19 10:34:55;;;;;;;;;;;;;;;20.57;31.93;95301.78;5007518;28;19932;-83
2023/07/19 10:37:20;;;;;;;;;;;;;;;20.61;30.74;95305.63;5007785;28;19917;-83
2023/07/19 10:39:45;;;;;;;;;;;;;;;19.93;31.80;95311.97;5005683;28;19913;-84
2023/07/19 10:42:11;;;;;;;;;;;;;;;20.53;31.49;95322.28;5007919;28;19968;-84
2023/07/19 10:44:36;;;;;;;;;;;;;;;20.51;30.48;95310.09;5012769;28;19913;-83
2023/07/19 10:47:01;;;;;;;;;;;;;;;21.04;30.71;95313.22;5005290;28;19917;-84
2023/07/19 10:49:27;;;;;;;;;;;;;;;20.48;32.77;95311.41;5005910;28;19921;-83
2023/07/19 10:51:55;;;;;;;;;;;;;;;20.03;32.37;95302.41;5006801;28;20015;-84
2023/07/19 10:54:21;;;;;;;;;;;;;;;20.45;31.50;95310.03;4989875;28;19936;-84
2023/07/19 10:56:49;;;;;;;;;;;;;;;20.78;31.02;95310.22;5011528;28;20459;-81
2023/07/19 10:59:14;;;;;;;;;;;;;;;20.98;30.74;95315.03;4999803;28;19924;-70
2023/07/19 11:01:40;;;;;;;;;;;;;;;21.21;30.56;95306.94;5001240;28;19925;-70
2023/07/19 11:04:07;;;;;;;;;;;;;;;21.40;29.75;95314.72;5008984;28;20118;-69
2023/07/19 11:06:32;;;;;;;;;;;;;;;21.52;29.01;95312.69;4998230;28;20271;-70
2023/07/19 11:09:07;;;;;;;;;;;;;;;21.13;29.96;95300.88;5002680;28;19928;-69
2023/07/19 11:11:36;;;;;;;;;;;;;;;20.65;30.46;95297.88;5005204;28;20380;-70
2023/07/19 11:14:02;;;;;;;;;;;;;;;21.27;29.67;95305.91;5002123;28;19925;-82
2023/07/19 11:16:27;;;;;;;;;;;;;;;22.22;28.05;95292.09;5015200;28;19921;-82
2023/07/19 11:18:52;;;;;;;;;;;;;;;21.82;29.02;95303.19;5006237;28;19922;-82
2023/07/19 11:21:27;;;;;;;;;;;;;;;21.59;29.38;95309.75;5010119;28;19925;-82
2023/07/19 11:23:52;;;;;;;;;;;;;;;21.98;29.80;95303.34;5004852;28;19991;-82
2023/07/19 11:26:18;;;;;;;;;;;;;;;21.54;29.89;95309.69;5016076;28;19925;-82
2023/07/19 11:28:44;;;;;;;;;;;;;;;21.63;30.34;95311.72;5003378;28;19972;-82
2023/07/19 11:31:11;;;;;;;;;;;;;;;22.08;28.55;95297.16;5017301;28;20637;-82
2023/07/19 11:33:36;;;;;;;;;;;;;;;21.82;29.10;95311.31;5011402;28;19921;-81
2023/07/19 11:36:08;;;;;;;;;;;;;;;21.13;29.55;95306.31;4999738;28;19921;-81
2023/07/19 11:38:35;;;;;;;;;;;;;;;21.41;28.82;95311.75;5014703;28;20032;-82
2023/07/19 11:41:00;;;;;;;;;;;;;;;21.15;28.79;95316.06;5018022;28;19951;-81
2023/07/19 11:43:25;;;;;;;;;;;;;;;21.76;30.19;95307.75;5021622;28;20351;-81
2023/07/19 11:45:51;;;;;;;;;;;;;;;22.04;29.71;95296.88;5020926;28;19917;-82
2023/07/19 11:48:16;;;;;;;;;;;;;;;21.49;29.19;95310.47;5014914;28;20390;-82
2023/07/19 11:50:41;;;;;;;;;;;;;;;21.75;28.64;95303.41;5015412;28;20015;-82
2023/07/19 11:53:07;;;;;;;;;;;;;;;21.84;27.74;95295.63;5007923;28;19957;-82
2023/07/19 11:55:32;;;;;;;;;;;;;;;21.54;29.15;95299.69;5014353;28;19921;-82
2023/07/19 11:58:04;;;;;;;;;;;;;;;22.27;28.77;95284.81;5014947;28;19961;-82
2023/07/19 12:00:29;;;;;;;;;;;;;;;22.65;28.36;95290.25;5014285;28;20024;-82
2023/07/19 12:02:55;;;;;;;;;;;;;;;23.06;27.59;95277.91;5019217;28;20362;-83
2023/07/19 12:05:20;;;;;;;;;;;;;;;22.98;27.02;95275.69;5001987;28;19938;-83
2023/07/19 12:07:47;;;;;;;;;;;;;;;23.49;27.72;95274.22;5003127;28;19920;-82
2023/07/19 12:10:12;;;;;;;;;;;;;;;23.66;26.54;95273.97;5029465;28;19931;-83
2023/07/19 12:12:38;;;;;;;;;;;;;;;24.20;25.75;95271.75;5019704;28;20414;-82
2023/07/19 12:15:07;;;;;;;;;;;;;;;24.23;26.26;95262.25;5004249;28;19913;-82
2023/07/19 12:17:33;;;;;;;;;;;;;;;23.52;28.26;95274.47;5004461;28;20175;-82
2023/07/19 12:19:59;;;;;;;;;;;;;;;24.07;26.45;95279.38;5016184;28;20519;-83
2023/07/19 12:22:27;;;;;;;;;;;;;;;23.75;26.74;95287.81;5007673;28;19977;-83
2023/07/19 12:24:53;;;;;;;;;;;;;;;23.36;27.42;95280.97;5007470;28;19928;-82
2023/07/19 12:27:18;;;;;;;;;;;;;;;23.20;27.45;95282.84;5013334;28;20306;-83
2023/07/19 12:29:43;;;;;;;;;;;;;;;23.36;27.43;95276.38;5012172;28;20007;-83
2023/07/19 12:32:09;;;;;;;;;;;;;;;22.61;27.75;95282.88;5006823;28;19921;-82
2023/07/19 12:34:34;;;;;;;;;;;;;;;22.44;28.54;95283.03;5006604;28;19928;-82
2023/07/19 12:36:59;;;;;;;;;;;;;;;21.86;29.10;95296.16;5004224;28;19922;-82
2023/07/19 12:39:25;;;;;;;;;;;;;;;22.31;29.08;95284.31;5003498;28;19928;-81